Time;durP1;ratioP1;P1;durP2;ratioP2;P2;SDS_P1;SDS_P2;PMS_P1;PMS_P2;Temp;Humidity;BMP_temperature;BMP_pressure;BME280_temperature;BME280_humidity;BME280_pressure;Samples;Min_cycle;Max_cycle;Signal;HPM_P1;HPM_P2
2021/12/16 00:01:49;;;;;;;11.32;5.50;;;5.70;99.90;;;;;;5076635;28;20063;-73
2021/12/16 00:34:27;;;;;;;9.32;4.75;;;5.80;99.90;;;;;;5075774;28;20097;-74
2021/12/16 00:36:52;;;;;;;10.85;5.28;;;5.80;99.90;;;;;;5075138;28;20108;-73
2021/12/16 00:39:26;;;;;;;10.57;4.68;;;5.80;99.90;;;;;;5075330;28;20103;-73
2021/12/16 00:41:57;;;;;;;10.98;4.78;;;5.80;99.90;;;;;;5057566;28;20115;-73
2021/12/16 00:50:05;;;;;;;7.70;4.67;;;5.80;99.90;;;;;;5075379;28;20039;-74
2021/12/16 00:57:51;;;;;;;10.25;4.13;;;5.80;99.90;;;;;;5075229;28;20029;-74
2021/12/16 01:00:18;;;;;;;9.38;4.28;;;5.80;99.90;;;;;;5074979;28;20025;-73
2021/12/16 01:35:23;;;;;;;9.48;4.00;;;5.90;99.90;;;;;;5074654;28;20121;-74
2021/12/16 01:51:22;;;;;;;6.47;3.55;;;5.90;99.90;;;;;;5074362;28;20035;-74
2021/12/16 01:54:30;;;;;;;5.57;3.63;;;5.90;99.90;;;;;;5074192;28;20024;-74
2021/12/16 01:56:57;;;;;;;6.47;3.03;;;5.90;99.90;;;;;;5073444;28;20032;-73
2021/12/16 01:59:26;;;;;;;6.47;3.53;;;5.90;99.90;;;;;;5055993;28;20025;-74
2021/12/16 02:01:59;;;;;;;5.32;3.20;;;5.90;99.90;;;;;;5056518;28;20119;-73
2021/12/16 02:04:38;;;;;;;6.38;3.60;;;5.90;99.90;;;;;;5056666;28;20119;-74
2021/12/16 02:07:12;;;;;;;6.50;2.75;;;5.90;99.90;;;;;;5056122;28;20029;-74
2021/12/16 02:09:43;;;;;;;5.30;2.72;;;5.90;99.90;;;;;;5056209;28;20033;-74
2021/12/16 02:39:05;;;;;;;6.05;3.38;;;5.80;99.90;;;;;;5073747;28;20058;-73
2021/12/16 02:41:31;;;;;;;6.25;3.22;;;5.80;99.90;;;;;;5074091;28;20021;-73
2021/12/16 02:44:18;;;;;;;8.13;3.67;;;5.80;99.90;;;;;;5055662;28;20361;-73
2021/12/16 02:49:32;;;;;;;9.13;4.28;;;5.80;99.90;;;;;;5074057;28;20117;-73
2021/12/16 02:51:58;;;;;;;6.97;3.88;;;5.80;99.90;;;;;;5073883;28;20056;-73
2021/12/16 02:54:26;;;;;;;7.13;3.42;;;5.80;99.90;;;;;;5055834;28;20055;-73
2021/12/16 02:56:52;;;;;;;9.23;4.77;;;5.80;99.90;;;;;;5073559;28;20025;-73
2021/12/16 02:59:25;;;;;;;7.43;4.10;;;5.70;99.90;;;;;;5073576;28;20051;-74
2021/12/16 03:01:52;;;;;;;8.18;3.72;;;5.70;99.90;;;;;;5073557;28;20023;-74
2021/12/16 03:04:20;;;;;;;9.32;4.65;;;5.70;99.90;;;;;;5055800;28;20029;-74
2021/12/16 03:06:49;;;;;;;7.80;4.45;;;5.70;99.90;;;;;;5055562;28;20066;-73
2021/12/16 03:09:20;;;;;;;6.20;3.47;;;5.70;99.90;;;;;;5055570;28;20526;-73
2021/12/16 03:12:18;;;;;;;9.05;4.32;;;5.70;99.90;;;;;;5073566;28;20032;-73
2021/12/16 03:14:43;;;;;;;7.88;3.45;;;5.70;99.90;;;;;;5073407;28;20029;-73
2021/12/16 03:17:23;;;;;;;8.07;4.28;;;5.70;99.90;;;;;;5055481;28;20032;-73
2021/12/16 03:20:00;;;;;;;7.57;4.18;;;5.70;99.90;;;;;;5058185;28;20051;-73
2021/12/16 03:22:47;;;;;;;7.05;3.50;;;5.70;99.90;;;;;;5059047;28;20024;-74
2021/12/16 03:33:17;;;;;;;5.78;3.60;;;5.70;99.90;;;;;;5076649;28;20045;-73
2021/12/16 03:35:53;;;;;;;6.00;3.72;;;5.70;99.90;;;;;;5076472;28;20119;-73
2021/12/16 03:38:20;;;;;;;8.65;4.30;;;5.70;99.90;;;;;;5058875;28;20190;-73
2021/12/16 03:40:47;;;;;;;9.55;4.20;;;5.70;99.90;;;;;;5076224;28;20049;-73
2021/12/16 03:43:16;;;;;;;8.70;4.65;;;5.70;99.90;;;;;;5076606;28;20021;-74
2021/12/16 03:48:37;;;;;;;6.75;3.80;;;5.70;99.90;;;;;;5076554;28;20267;-73
2021/12/16 03:51:29;;;;;;;9.30;3.88;;;5.70;99.90;;;;;;5076153;28;20496;-73
2021/12/16 03:54:00;;;;;;;7.55;4.30;;;5.70;99.90;;;;;;5058354;28;20029;-73
2021/12/16 03:56:26;;;;;;;7.90;4.85;;;5.70;99.90;;;;;;5076313;28;20028;-74
2021/12/16 03:58:52;;;;;;;7.28;4.05;;;5.70;99.90;;;;;;5058447;28;20020;-74
2021/12/16 04:01:23;;;;;;;8.93;4.55;;;5.70;99.90;;;;;;5058247;28;20086;-74
2021/12/16 04:03:50;;;;;;;8.90;4.70;;;5.70;99.90;;;;;;5058146;28;20025;-73
2021/12/16 04:06:17;;;;;;;10.15;4.13;;;5.70;99.90;;;;;;5057947;28;20123;-74
2021/12/16 04:08:43;;;;;;;8.32;4.30;;;5.70;99.90;;;;;;5075996;28;20052;-73
2021/12/16 04:11:19;;;;;;;6.95;4.10;;;5.70;99.90;;;;;;5075686;28;20060;-73
2021/12/16 04:13:54;;;;;;;9.85;4.28;;;5.70;99.90;;;;;;5076000;28;20063;-73
2021/12/16 04:16:32;;;;;;;7.70;4.57;;;5.70;99.90;;;;;;5058429;28;20067;-73
2021/12/16 04:18:59;;;;;;;7.18;4.18;;;5.70;99.90;;;;;;5058510;28;20025;-73
2021/12/16 04:21:27;;;;;;;6.38;4.25;;;5.70;99.90;;;;;;5075638;28;20064;-74
2021/12/16 04:23:56;;;;;;;9.07;4.63;;;5.70;99.90;;;;;;5075645;28;20017;-73
2021/12/16 04:26:24;;;;;;;8.50;4.60;;;5.70;99.90;;;;;;5057751;28;20028;-73
2021/12/16 04:28:50;;;;;;;12.10;5.28;;;5.70;99.90;;;;;;5075859;28;20270;-73
2021/12/16 04:31:16;;;;;;;7.53;4.43;;;5.70;99.90;;;;;;5063333;28;20044;-74
2021/12/16 04:33:42;;;;;;;8.23;4.50;;;5.70;99.90;;;;;;5096044;28;20036;-73
2021/12/16 04:36:10;;;;;;;8.13;4.90;;;5.70;99.90;;;;;;5095660;28;20039;-74
2021/12/16 04:38:37;;;;;;;10.82;4.85;;;5.70;99.90;;;;;;5094438;28;20111;-73
2021/12/16 04:41:08;;;;;;;7.95;4.45;;;5.70;99.90;;;;;;5094206;28;20028;-73
2021/12/16 04:43:40;;;;;;;8.68;4.45;;;5.70;99.90;;;;;;5094683;28;20032;-73
2021/12/16 04:46:12;;;;;;;9.35;5.28;;;5.60;99.90;;;;;;5095487;28;20032;-73
2021/12/16 04:48:40;;;;;;;8.18;4.88;;;5.70;99.90;;;;;;5095446;28;20016;-73
2021/12/16 04:51:07;;;;;;;11.40;6.13;;;5.60;99.90;;;;;;5094114;28;20030;-73
2021/12/16 04:53:33;;;;;;;10.45;6.15;;;5.60;99.90;;;;;;5095591;28;20024;-73
2021/12/16 04:55:59;;;;;;;8.77;5.80;;;5.60;99.90;;;;;;5095213;28;20031;-73
2021/12/16 04:58:26;;;;;;;11.40;5.22;;;5.60;99.90;;;;;;5095212;28;20028;-73
2021/12/16 05:00:52;;;;;;;9.40;4.68;;;5.50;99.90;;;;;;5095116;28;20073;-73
2021/12/16 05:03:17;;;;;;;9.10;5.25;;;5.50;99.90;;;;;;5095114;28;20024;-73
2021/12/16 05:05:43;;;;;;;12.20;6.43;;;5.50;99.90;;;;;;5093691;28;20036;-74
2021/12/16 05:08:09;;;;;;;11.35;5.57;;;5.50;99.90;;;;;;5093861;28;20039;-73
2021/12/16 05:10:35;;;;;;;9.90;6.20;;;5.50;99.90;;;;;;5095232;28;20463;-71
2021/12/16 05:13:03;;;;;;;10.30;6.30;;;5.50;99.90;;;;;;5093827;28;20357;-74
2021/12/16 05:15:34;;;;;;;13.65;6.50;;;5.50;99.90;;;;;;5094111;28;20422;-73
2021/12/16 05:18:04;;;;;;;13.40;6.82;;;5.50;99.90;;;;;;5093602;28;20036;-72
2021/12/16 05:20:38;;;;;;;11.65;7.07;;;5.50;99.90;;;;;;5094945;28;20050;-72
2021/12/16 05:28:24;;;;;;;11.98;6.07;;;5.40;99.90;;;;;;5094786;28;20376;-73
2021/12/16 05:30:52;;;;;;;11.35;6.40;;;5.40;99.90;;;;;;5091574;28;20028;-72
2021/12/16 05:33:18;;;;;;;13.75;6.30;;;5.40;99.90;;;;;;5056659;28;20119;-72
2021/12/16 05:35:44;;;;;;;14.27;6.88;;;5.40;99.90;;;;;;5074197;28;20039;-73
2021/12/16 05:38:10;;;;;;;12.43;6.88;;;5.30;99.90;;;;;;5074238;28;20028;-73
2021/12/16 05:40:36;;;;;;;12.98;6.97;;;5.30;99.90;;;;;;5055860;28;20028;-73
2021/12/16 05:43:07;;;;;;;13.73;7.35;;;5.30;99.90;;;;;;5073510;28;20033;-73
2021/12/16 05:45:34;;;;;;;12.77;6.68;;;5.30;99.90;;;;;;5056356;28;20124;-73
2021/12/16 05:48:02;;;;;;;13.23;6.75;;;5.30;99.90;;;;;;5073981;28;20039;-71
2021/12/16 05:50:32;;;;;;;11.57;5.20;;;5.30;99.90;;;;;;5073995;28;20032;-72
2021/12/16 05:52:58;;;;;;;15.85;7.05;;;5.20;99.90;;;;;;5073991;28;20024;-73
2021/12/16 05:55:24;;;;;;;13.35;5.97;;;5.20;99.90;;;;;;5055960;28;20032;-73
2021/12/16 05:57:51;;;;;;;13.55;7.10;;;5.20;99.90;;;;;;5056426;28;20365;-69
2021/12/16 06:00:27;;;;;;;13.73;7.13;;;5.10;99.90;;;;;;5055602;28;20029;-70
2021/12/16 06:02:53;;;;;;;15.73;6.97;;;5.10;99.90;;;;;;5073804;28;20033;-69
2021/12/16 06:05:19;;;;;;;12.57;5.88;;;5.10;99.90;;;;;;5073887;28;20036;-70
2021/12/16 06:07:46;;;;;;;13.63;6.20;;;5.10;99.90;;;;;;5055716;28;20542;-68
2021/12/16 06:10:42;;;;;;;11.25;5.55;;;5.10;99.90;;;;;;5055818;28;20472;-67
2021/12/16 06:12:59;;;;;;;15.30;6.53;;;5.10;99.90;;;;;;5073189;28;20035;-70
2021/12/16 06:29:04;;;;;;;14.60;6.10;;;5.00;99.90;;;;;;5073612;28;20407;-69
2021/12/16 06:31:30;;;;;;;12.50;6.50;;;5.00;99.90;;;;;;5073439;28;20140;-69
2021/12/16 06:33:56;;;;;;;16.80;6.38;;;5.10;99.90;;;;;;5073530;28;20028;-68
2021/12/16 06:36:23;;;;;;;13.95;6.68;;;5.00;99.90;;;;;;5055851;28;20372;-70
2021/12/16 06:38:49;;;;;;;12.45;6.35;;;5.00;99.90;;;;;;5055260;28;20123;-72
2021/12/16 06:41:16;;;;;;;13.15;7.38;;;5.00;99.90;;;;;;5073552;28;20425;-69
2021/12/16 06:43:43;;;;;;;13.38;7.25;;;5.00;99.90;;;;;;5073332;28;20475;-73
2021/12/16 06:46:13;;;;;;;14.18;7.38;;;5.00;99.90;;;;;;5055273;28;20041;-73
2021/12/16 06:48:42;;;;;;;13.77;7.05;;;4.90;99.90;;;;;;5055422;28;20025;-72
2021/12/16 06:51:12;;;;;;;15.95;7.40;;;4.90;99.90;;;;;;5055355;28;20457;-72
2021/12/16 06:53:49;;;;;;;12.55;7.38;;;4.90;99.90;;;;;;5055837;28;20032;-72
2021/12/16 06:56:26;;;;;;;13.13;7.38;;;4.90;99.90;;;;;;5059183;28;20034;-72
2021/12/16 06:59:05;;;;;;;13.55;6.50;;;4.90;99.90;;;;;;5059751;28;20024;-73
2021/12/16 07:01:41;;;;;;;11.10;6.07;;;4.90;99.90;;;;;;5077236;28;20048;-74
2021/12/16 07:04:13;;;;;;;9.63;6.35;;;4.90;99.90;;;;;;5077375;28;20025;-73
2021/12/16 07:06:39;;;;;;;16.58;7.38;;;4.90;99.90;;;;;;5077015;28;20086;-73
2021/12/16 07:09:13;;;;;;;11.00;6.28;;;4.90;99.90;;;;;;5058996;28;20111;-73
2021/12/16 07:11:51;;;;;;;15.65;7.55;;;4.90;99.90;;;;;;5076954;28;20016;-73
2021/12/16 07:14:19;;;;;;;14.00;6.88;;;4.90;99.90;;;;;;5059101;28;20082;-71
2021/12/16 07:16:48;;;;;;;13.05;6.95;;;4.90;99.90;;;;;;5076839;28;20046;-73
2021/12/16 07:19:14;;;;;;;12.70;6.63;;;4.90;99.90;;;;;;5058545;28;20059;-72
2021/12/16 07:21:41;;;;;;;15.52;7.35;;;4.90;99.90;;;;;;5076422;28;20128;-72
2021/12/16 07:24:10;;;;;;;14.07;6.78;;;4.90;99.90;;;;;;5076991;28;20422;-72
2021/12/16 07:26:37;;;;;;;15.60;7.05;;;4.90;99.90;;;;;;5058599;28;20044;-73
2021/12/16 07:29:05;;;;;;;14.73;7.57;;;4.90;99.90;;;;;;5076317;28;20112;-72
2021/12/16 07:31:33;;;;;;;16.30;7.20;;;4.90;99.90;;;;;;5076450;28;20048;-73
2021/12/16 07:34:00;;;;;;;14.15;7.40;;;4.90;99.90;;;;;;5076630;28;20027;-72
2021/12/16 07:36:26;;;;;;;18.30;8.38;;;4.90;99.90;;;;;;5058584;28;20060;-71
2021/12/16 07:38:53;;;;;;;15.82;7.18;;;4.90;99.90;;;;;;5076444;28;20084;-71
2021/12/16 07:41:22;;;;;;;14.38;6.70;;;4.90;99.90;;;;;;5058534;28;20027;-72
2021/12/16 07:44:32;;;;;;;13.93;7.03;;;4.90;99.90;;;;;;5076779;28;20022;-72
2021/12/16 07:46:50;;;;;;;14.80;7.78;;;4.80;99.90;;;;;;5067508;28;20035;-71
2021/12/16 07:49:19;;;;;;;15.45;6.78;;;4.80;99.90;;;;;;5059035;28;20389;-71
2021/12/16 07:51:46;;;;;;;13.65;7.05;;;4.80;99.90;;;;;;5076301;28;20096;-71
2021/12/16 07:54:14;;;;;;;14.27;7.40;;;4.80;99.90;;;;;;5058342;28;20027;-71
2021/12/16 07:56:41;;;;;;;11.60;6.30;;;4.80;99.90;;;;;;5076316;28;20085;-72
2021/12/16 07:59:08;;;;;;;12.55;6.15;;;4.80;99.90;;;;;;5075825;28;20071;-72
2021/12/16 08:01:39;;;;;;;13.90;5.75;;;4.80;99.90;;;;;;5057832;28;20028;-71
2021/12/16 08:04:05;;;;;;;13.25;6.55;;;4.90;99.90;;;;;;5075720;28;20039;-72
2021/12/16 08:06:31;;;;;;;12.57;4.82;;;4.90;99.90;;;;;;5075773;28;20067;-72
2021/12/16 08:09:02;;;;;;;11.90;5.28;;;4.90;99.90;;;;;;5075985;28;20024;-72
2021/12/16 08:11:31;;;;;;;12.35;5.32;;;4.90;99.90;;;;;;5075611;28;20092;-72
2021/12/16 08:13:56;;;;;;;11.32;5.43;;;4.90;99.90;;;;;;5075794;28;20024;-72
2021/12/16 08:16:23;;;;;;;11.30;5.45;;;4.90;99.90;;;;;;5075729;28;20093;-72
2021/12/16 08:18:49;;;;;;;11.65;5.53;;;4.90;99.90;;;;;;5057755;28;20025;-73
2021/12/16 08:21:15;;;;;;;10.20;5.40;;;4.90;99.90;;;;;;5075334;28;20024;-72
2021/12/16 08:23:41;;;;;;;12.35;5.72;;;4.80;99.90;;;;;;5075639;28;20017;-72
2021/12/16 08:26:07;;;;;;;10.90;5.07;;;4.80;99.90;;;;;;5075536;28;20033;-72
2021/12/16 08:28:33;;;;;;;8.80;4.93;;;4.70;99.90;;;;;;5058015;28;20052;-72
2021/12/16 08:30:59;;;;;;;9.10;4.30;;;4.70;99.90;;;;;;5075473;28;20110;-72
2021/12/16 08:33:25;;;;;;;8.57;4.55;;;4.70;99.90;;;;;;5058190;28;20035;-72
2021/12/16 08:35:53;;;;;;;8.32;4.07;;;4.70;99.90;;;;;;5075323;28;20029;-70
2021/12/16 08:38:24;;;;;;;10.60;4.50;;;4.70;99.90;;;;;;5075579;28;20059;-71
2021/12/16 08:40:54;;;;;;;8.05;3.92;;;4.70;99.90;;;;;;5057314;28;20037;-72
2021/12/16 08:43:21;;;;;;;7.78;3.60;;;4.70;99.90;;;;;;5057354;28;20028;-72
2021/12/16 08:45:48;;;;;;;9.15;4.03;;;4.60;99.90;;;;;;5075072;28;20032;-73
2021/12/16 08:48:14;;;;;;;7.68;4.13;;;4.70;99.90;;;;;;5075150;28;20414;-73
2021/12/16 08:50:44;;;;;;;8.55;3.60;;;4.60;99.90;;;;;;5057373;28;20119;-73
2021/12/16 08:53:11;;;;;;;7.38;3.33;;;4.60;99.90;;;;;;5057085;28;20059;-73
2021/12/16 08:55:40;;;;;;;7.15;3.55;;;4.60;99.90;;;;;;5075271;28;20035;-73
2021/12/16 08:58:06;;;;;;;5.78;3.15;;;4.50;99.90;;;;;;5056939;28;20483;-73
2021/12/16 09:00:37;;;;;;;5.65;2.50;;;4.60;99.90;;;;;;5056996;28;20426;-73
2021/12/16 09:03:03;;;;;;;8.23;3.00;;;4.60;99.90;;;;;;5075626;28;20027;-74
2021/12/16 09:05:29;;;;;;;7.35;3.40;;;4.60;99.90;;;;;;5074716;28;20112;-73
2021/12/16 09:07:56;;;;;;;7.70;3.78;;;4.60;99.90;;;;;;5074870;28;20472;-73
2021/12/16 09:10:27;;;;;;;5.88;3.97;;;4.70;99.90;;;;;;5074928;28;20056;-73
2021/12/16 09:15:29;;;;;;;6.90;4.00;;;4.70;99.90;;;;;;5074578;28;20444;-73
2021/12/16 09:17:55;;;;;;;4.93;2.55;;;4.70;99.90;;;;;;5056179;28;20365;-73
2021/12/16 09:20:22;;;;;;;6.88;2.47;;;4.80;99.90;;;;;;5056630;28;20028;-73
2021/12/16 09:22:48;;;;;;;4.35;2.40;;;4.80;99.90;;;;;;5074235;28;20380;-73
2021/12/16 09:25:15;;;;;;;3.45;2.50;;;4.80;99.90;;;;;;5074538;28;20054;-74
2021/12/16 09:27:41;;;;;;;5.00;2.28;;;4.80;99.90;;;;;;5056527;28;20115;-73
2021/12/16 09:30:10;;;;;;;4.22;2.08;;;4.90;99.90;;;;;;5074337;28;20016;-73
2021/12/16 09:32:37;;;;;;;4.28;1.27;;;4.90;99.90;;;;;;5085263;28;20076;-73
2021/12/16 09:35:04;;;;;;;5.57;2.33;;;4.90;99.90;;;;;;5094564;28;20024;-73
2021/12/16 09:37:30;;;;;;;4.35;2.42;;;4.90;99.90;;;;;;5093491;28;20379;-73
2021/12/16 09:39:56;;;;;;;4.68;2.55;;;5.00;99.90;;;;;;5093488;28;20024;-73
2021/12/16 09:42:24;;;;;;;4.15;2.13;;;5.10;99.90;;;;;;5094398;28;20055;-73
2021/12/16 09:44:50;;;;;;;6.50;2.22;;;5.10;99.90;;;;;;5094290;28;20036;-73
2021/12/16 09:47:16;;;;;;;4.93;2.30;;;5.10;99.90;;;;;;5094066;28;20565;-73
2021/12/16 09:49:42;;;;;;;5.32;2.45;;;5.10;99.90;;;;;;5092826;28;20020;-73
2021/12/16 09:52:11;;;;;;;5.03;2.35;;;5.10;99.90;;;;;;5094172;28;20043;-73
2021/12/16 09:54:38;;;;;;;5.13;2.75;;;5.10;99.90;;;;;;5093148;28;20024;-73
2021/12/16 09:57:04;;;;;;;3.00;2.10;;;5.20;99.90;;;;;;5092930;28;20557;-73
2021/12/16 09:59:34;;;;;;;4.00;2.53;;;5.20;99.90;;;;;;5094198;28;20038;-73
2021/12/16 10:02:04;;;;;;;4.97;2.63;;;5.20;99.90;;;;;;5092905;28;20119;-73
2021/12/16 10:04:33;;;;;;;4.78;2.63;;;5.30;99.90;;;;;;5094052;28;20024;-73
2021/12/16 10:07:05;;;;;;;4.85;2.25;;;5.30;99.90;;;;;;5092804;28;20083;-73
2021/12/16 10:09:31;;;;;;;6.78;2.30;;;5.30;99.90;;;;;;5092835;28;20059;-73
2021/12/16 10:12:20;;;;;;;6.97;2.92;;;5.30;99.90;;;;;;5094087;28;20056;-73
2021/12/16 10:17:24;;;;;;;4.55;2.70;;;5.30;99.90;;;;;;5093966;28;20064;-74
2021/12/16 10:19:50;;;;;;;4.60;2.60;;;5.30;99.90;;;;;;5094002;28;20024;-74
2021/12/16 10:22:22;;;;;;;3.97;2.47;;;5.30;99.90;;;;;;5092710;28;20056;-74
2021/12/16 10:24:50;;;;;;;4.50;2.67;;;5.30;99.90;;;;;;5093754;28;20036;-74
2021/12/16 10:27:24;;;;;;;6.07;2.47;;;5.30;99.90;;;;;;5092532;28;20028;-74
2021/12/16 10:29:55;;;;;;;3.63;2.55;;;5.30;99.90;;;;;;5096444;28;20056;-74
2021/12/16 10:32:54;;;;;;;5.25;2.17;;;5.30;99.90;;;;;;5085609;28;20074;-74
2021/12/16 10:35:28;;;;;;;;;;;5.40;99.90;;;;;;5023908;28;20044;-74
2021/12/16 10:38:01;;;;;;;4.30;2.70;;;5.40;99.90;;;;;;5059707;28;19904;-74
2021/12/16 10:40:59;;;;;;;4.82;2.63;;;5.40;99.90;;;;;;5077653;28;20090;-74
2021/12/16 10:43:30;;;;;;;5.85;2.42;;;5.40;99.90;;;;;;5072663;28;20127;-74
2021/12/16 10:46:13;;;;;;;5.07;2.83;;;5.40;99.90;;;;;;5077409;28;20411;-74
2021/12/16 10:48:47;;;;;;;4.90;2.88;;;5.40;99.90;;;;;;5060293;28;20352;-74
2021/12/16 10:51:19;;;;;;;4.72;2.55;;;5.40;99.90;;;;;;5059829;28;20028;-72
2021/12/16 10:54:00;;;;;;;3.92;2.50;;;5.40;99.90;;;;;;5059474;28;20521;-72
2021/12/16 10:56:41;;;;;;;5.05;2.10;;;5.50;99.90;;;;;;5059185;28;20480;-73
2021/12/16 10:59:13;;;;;;;3.95;1.92;;;5.50;99.90;;;;;;5077165;28;20109;-73
2021/12/16 11:01:52;;;;;;;4.30;2.42;;;5.60;99.90;;;;;;5059259;28;20032;-73
2021/12/16 11:04:21;;;;;;;3.45;2.50;;;5.60;99.90;;;;;;5058770;28;20113;-73
2021/12/16 11:06:54;;;;;;;3.20;2.25;;;5.60;99.90;;;;;;5077253;28;20032;-73
2021/12/16 11:09:35;;;;;;;4.40;2.00;;;5.70;99.90;;;;;;5059255;28;20043;-73
2021/12/16 11:12:21;;;;;;;4.40;2.53;;;5.80;99.90;;;;;;5077386;28;20052;-74
2021/12/16 11:14:55;;;;;;;5.57;2.58;;;5.80;99.90;;;;;;5076938;28;20107;-73
2021/12/16 11:17:24;;;;;;;3.95;2.33;;;5.90;99.90;;;;;;5059546;28;20029;-72
2021/12/16 11:20:18;;;;;;;4.30;2.42;;;6.00;99.90;;;;;;5058792;28;20499;-72
2021/12/16 11:22:44;;;;;;;4.15;2.58;;;6.00;99.90;;;;;;5076622;28;20100;-73
2021/12/16 11:25:21;;;;;;;3.42;2.25;;;6.20;99.90;;;;;;5076226;28;20043;-72
2021/12/16 11:28:06;;;;;;;4.10;2.80;;;6.20;99.90;;;;;;5076627;28;20082;-72
2021/12/16 11:30:34;;;;;;;5.35;2.08;;;6.10;99.90;;;;;;5058497;28;20036;-72
2021/12/16 11:33:07;;;;;;;2.57;2.03;;;6.10;99.90;;;;;;5089801;28;20083;-72
2021/12/16 11:35:46;;;;;;;5.03;3.08;;;6.20;99.90;;;;;;5096924;28;20067;-71
2021/12/16 11:38:59;;;;;;;4.68;2.88;;;6.30;99.90;;;;;;5096956;28;20020;-73
2021/12/16 11:41:24;;;;;;;4.03;2.72;;;6.40;99.90;;;;;;5074833;28;20063;-71
2021/12/16 11:43:59;;;;;;;4.22;2.47;;;6.70;99.90;;;;;;5095548;28;20412;-71
2021/12/16 11:46:40;;;;;;;6.53;3.35;;;6.60;99.90;;;;;;5096503;28;20035;-72
2021/12/16 11:49:15;;;;;;;5.78;3.65;;;6.50;99.90;;;;;;5094905;28;20024;-71
2021/12/16 11:51:44;;;;;;;5.68;3.45;;;6.50;99.90;;;;;;5096356;28;20531;-71
2021/12/16 11:54:23;;;;;;;5.35;3.13;;;6.40;99.90;;;;;;5096211;28;20024;-71
2021/12/16 11:56:55;;;;;;;6.03;3.15;;;6.30;99.90;;;;;;5096102;28;20434;-71
2021/12/16 11:59:35;;;;;;;6.30;3.50;;;6.30;99.90;;;;;;5095456;28;20058;-71
2021/12/16 12:02:03;;;;;;;6.43;3.45;;;6.20;99.90;;;;;;5095843;28;20021;-72
2021/12/16 12:04:36;;;;;;;6.72;3.45;;;6.30;99.90;;;;;;5096469;28;20411;-71
2021/12/16 12:07:11;;;;;;;6.65;3.80;;;6.30;99.90;;;;;;5097034;28;20024;-72
2021/12/16 12:09:42;;;;;;;6.43;3.45;;;6.40;99.90;;;;;;5097221;28;20024;-72
2021/12/16 12:12:08;;;;;;;6.95;3.67;;;6.40;99.90;;;;;;5096624;28;20031;-74
2021/12/16 12:14:37;;;;;;;6.90;4.18;;;6.40;99.90;;;;;;5094982;28;20028;-72
2021/12/16 12:17:16;;;;;;;6.75;3.65;;;6.40;99.90;;;;;;5095876;28;20035;-73
2021/12/16 12:19:44;;;;;;;11.00;4.07;;;6.40;99.90;;;;;;5094765;28;20039;-72
2021/12/16 12:22:11;;;;;;;8.52;4.38;;;6.40;99.90;;;;;;5094535;28;20063;-73
2021/12/16 12:24:44;;;;;;;7.40;4.20;;;6.50;99.90;;;;;;5095942;28;20024;-73
2021/12/16 12:27:13;;;;;;;7.80;4.35;;;6.50;99.90;;;;;;5094608;28;20035;-72
2021/12/16 12:29:46;;;;;;;8.02;4.82;;;6.40;99.90;;;;;;5096004;28;20038;-72
2021/12/16 12:32:21;;;;;;;8.63;4.43;;;6.30;99.90;;;;;;5094377;28;20048;-72
2021/12/16 12:35:07;;;;;;;6.68;3.83;;;6.30;99.90;;;;;;5096201;28;20028;-72
2021/12/16 12:37:36;;;;;;;7.82;3.95;;;6.20;99.90;;;;;;5095357;28;20472;-73
2021/12/16 12:40:31;;;;;;;9.40;4.22;;;6.20;99.90;;;;;;5094300;28;20032;-73
2021/12/16 12:42:57;;;;;;;7.72;4.63;;;6.10;99.90;;;;;;5094437;28;20173;-72
2021/12/16 12:45:28;;;;;;;6.55;3.70;;;6.10;99.90;;;;;;5095441;28;20040;-72
2021/12/16 12:47:57;;;;;;;6.68;4.25;;;6.00;99.90;;;;;;5094056;28;20024;-72
2021/12/16 12:50:27;;;;;;;8.98;4.43;;;6.00;99.90;;;;;;5095409;28;20078;-73
2021/12/16 12:52:55;;;;;;;6.57;3.85;;;5.90;99.90;;;;;;5093463;28;20464;-73
2021/12/16 12:55:33;;;;;;;9.50;5.60;;;5.90;99.90;;;;;;5095297;28;20112;-73
2021/12/16 12:58:04;;;;;;;8.25;4.72;;;5.80;99.90;;;;;;5094048;28;20028;-73
2021/12/16 13:01:00;;;;;;;8.65;5.18;;;5.70;99.90;;;;;;5093902;28;20055;-73
2021/12/16 13:03:31;;;;;;;7.93;4.47;;;5.70;99.90;;;;;;5093248;28;20056;-73
2021/12/16 13:06:04;;;;;;;9.35;4.90;;;5.60;99.90;;;;;;5095270;28;20059;-72
2021/12/16 13:08:34;;;;;;;10.07;5.45;;;5.50;99.90;;;;;;5093858;28;20479;-73
2021/12/16 13:11:08;;;;;;;8.57;4.70;;;5.50;99.90;;;;;;5093682;28;20035;-73
2021/12/16 13:13:53;;;;;;;9.40;4.97;;;5.50;99.90;;;;;;5095041;28;20016;-73
2021/12/16 13:25:18;;;;;;;8.77;5.57;;;5.70;99.90;;;;;;5094921;28;20034;-72
2021/12/16 13:27:46;;;;;;;10.65;5.47;;;5.70;99.90;;;;;;5094395;28;20036;-72
2021/12/16 13:30:20;;;;;;;9.07;5.03;;;5.70;99.90;;;;;;5094375;28;20481;-71
2021/12/16 13:33:17;;;;;;;10.07;5.18;;;5.70;99.90;;;;;;5079355;28;20044;-72
2021/12/16 13:35:49;;;;;;;10.88;5.53;;;5.80;99.90;;;;;;5074293;28;20476;-71
2021/12/16 13:38:17;;;;;;;9.52;4.88;;;5.80;99.90;;;;;;5074309;28;20100;-71
2021/12/16 13:40:43;;;;;;;12.50;5.97;;;5.80;99.90;;;;;;5074421;28;20032;-73
2021/12/16 13:43:20;;;;;;;10.52;5.40;;;5.80;99.90;;;;;;5074035;28;20255;-71
2021/12/16 14:03:29;;;;;;;10.00;5.88;;;5.90;99.90;;;;;;5073464;28;20044;-72
2021/12/16 14:08:38;;;;;;;7.82;4.63;;;5.90;99.90;;;;;;5073844;28;20365;-72
2021/12/16 14:12:05;;;;;;;10.27;5.70;;;5.90;99.90;;;;;;5073779;28;20483;-72
2021/12/16 14:17:42;;;;;;;8.95;5.13;;;5.90;99.90;;;;;;5073866;28;20116;-71
2021/12/16 14:23:25;;;;;;;7.53;4.50;;;5.80;99.90;;;;;;5073470;28;20040;-72
2021/12/16 14:31:31;;;;;;;7.28;4.32;;;5.80;99.90;;;;;;5073533;28;20031;-72
2021/12/16 14:42:15;;;;;;;9.30;5.80;;;5.70;99.90;;;;;;5073530;28;20029;-72
2021/12/16 14:50:39;;;;;;;10.43;5.07;;;5.80;99.90;;;;;;4991746;28;20549;-71
2021/12/16 14:53:28;;;;;;;10.00;5.10;;;5.80;99.90;;;;;;5020484;28;20032;-71
2021/12/16 14:55:58;;;;;;;10.80;5.93;;;5.70;99.90;;;;;;5073339;28;20031;-71
2021/12/16 14:58:25;;;;;;;9.32;5.28;;;5.70;99.90;;;;;;5055304;28;20124;-71
2021/12/16 15:00:57;;;;;;;11.80;5.45;;;5.70;99.90;;;;;;5055480;28;20068;-72
2021/12/16 15:03:38;;;;;;;10.57;5.15;;;5.70;99.90;;;;;;5055120;28;20055;-72
2021/12/16 15:06:20;;;;;;;7.75;3.80;;;5.70;99.90;;;;;;5055260;28;20081;-71
2021/12/16 15:11:27;;;;;;;10.18;5.30;;;5.60;99.90;;;;;;5073248;28;20028;-70
2021/12/16 15:13:58;;;;;;;8.43;5.18;;;5.60;99.90;;;;;;5073287;28;20025;-71
2021/12/16 15:44:11;;;;;;;7.53;4.13;;;5.50;99.90;;;;;;5076179;28;20098;-66
2021/12/16 15:46:38;;;;;;;6.63;3.37;;;5.50;99.90;;;;;;5076290;28;20037;-69
2021/12/16 15:49:05;;;;;;;7.97;4.47;;;5.40;99.90;;;;;;5076316;28;20545;-66
2021/12/16 15:51:31;;;;;;;9.57;5.15;;;5.40;99.90;;;;;;5076211;28;20033;-66
2021/12/16 15:54:00;;;;;;;10.13;5.30;;;5.40;99.90;;;;;;5076644;28;20375;-77
2021/12/16 15:56:31;;;;;;;9.10;4.97;;;5.40;99.90;;;;;;5058211;28;20358;-72
2021/12/16 15:59:02;;;;;;;8.27;4.30;;;5.40;99.90;;;;;;5058369;28;20024;-64
2021/12/16 16:01:40;;;;;;;7.65;4.65;;;5.40;99.90;;;;;;5058065;28;20048;-66
2021/12/16 16:04:16;;;;;;;7.37;3.73;;;5.40;99.90;;;;;;5076028;28;20067;-65
2021/12/16 16:06:52;;;;;;;9.45;4.35;;;5.50;99.90;;;;;;5076184;28;20040;-64
2021/12/16 16:09:20;;;;;;;8.30;4.95;;;5.50;99.90;;;;;;5075669;28;20037;-67
2021/12/16 16:11:51;;;;;;;7.75;5.00;;;5.40;99.90;;;;;;5075831;28;20035;-65
2021/12/16 16:14:18;;;;;;;9.18;4.63;;;5.40;99.90;;;;;;5058048;28;20082;-65
2021/12/16 16:16:49;;;;;;;6.80;3.90;;;5.40;99.90;;;;;;5057824;28;20029;-65
2021/12/16 16:19:37;;;;;;;6.90;4.38;;;5.30;99.90;;;;;;5076010;28;20439;-66
2021/12/16 16:22:04;;;;;;;8.67;4.03;;;5.30;99.90;;;;;;5058019;28;20415;-65
2021/12/16 16:24:30;;;;;;;8.48;4.43;;;5.30;99.90;;;;;;5075680;28;20028;-67
2021/12/16 16:26:59;;;;;;;6.53;3.88;;;5.30;99.90;;;;;;5057470;28;20043;-66
2021/12/16 16:29:28;;;;;;;8.68;4.03;;;5.40;99.90;;;;;;5057712;28;20074;-79
2021/12/16 16:31:54;;;;;;;7.15;4.22;;;5.40;99.90;;;;;;5070240;28;20044;-67
2021/12/16 16:34:25;;;;;;;8.02;4.32;;;5.40;99.90;;;;;;5095706;28;20024;-67
2021/12/16 16:37:00;;;;;;;6.78;4.18;;;5.40;99.90;;;;;;5095618;28;20060;-68
2021/12/16 16:39:28;;;;;;;5.78;3.80;;;5.40;99.90;;;;;;5095890;28;20035;-65
2021/12/16 16:42:07;;;;;;;6.63;3.88;;;5.40;99.90;;;;;;5095451;28;20388;-66
2021/12/16 16:44:33;;;;;;;6.60;3.70;;;5.30;99.90;;;;;;5094372;28;20028;-66
2021/12/16 16:47:09;;;;;;;4.60;3.08;;;5.30;99.90;;;;;;5094198;28;20047;-66
2021/12/16 16:49:49;;;;;;;9.43;4.10;;;5.30;99.90;;;;;;5095528;28;20027;-66
2021/12/16 16:52:21;;;;;;;5.00;3.17;;;5.20;99.90;;;;;;5095370;28;20026;-66
2021/12/16 16:55:00;;;;;;;7.07;3.60;;;5.20;99.90;;;;;;5095493;28;20106;-66
2021/12/16 16:57:32;;;;;;;6.80;3.35;;;5.30;99.90;;;;;;5094431;28;20025;-66
2021/12/16 17:00:01;;;;;;;3.45;2.53;;;5.30;99.90;;;;;;5095733;28;20024;-66
2021/12/16 17:02:29;;;;;;;4.63;2.58;;;5.30;99.90;;;;;;5093924;28;20020;-67
2021/12/16 17:05:15;;;;;;;5.15;2.88;;;5.30;99.90;;;;;;5095082;28;20086;-66
2021/12/16 17:07:54;;;;;;;4.38;2.63;;;5.30;99.90;;;;;;5094823;28;20468;-67
2021/12/16 17:10:37;;;;;;;5.10;2.95;;;5.30;99.90;;;;;;5095121;28;20106;-66
2021/12/16 17:13:08;;;;;;;3.15;2.13;;;5.30;99.90;;;;;;5093391;28;20031;-66